sensor_id;sensor_type;location;lat;lon;timestamp;pressure;altitude;pressure_sealevel;temperature
37414;BMP280;23279;46.472;30.760;2022-08-20T00:01:18;76593.56;;;-146.33
37414;BMP280;23279;46.472;30.760;2022-08-20T00:03:44;76575.25;;;-146.33
37414;BMP280;23279;46.472;30.760;2022-08-20T00:06:10;76569.16;;;-146.33
37414;BMP280;23279;46.472;30.760;2022-08-20T00:08:36;76571.19;;;-146.33
37414;BMP280;23279;46.472;30.760;2022-08-20T00:11:03;76554.91;;;-146.33
37414;BMP280;23279;46.472;30.760;2022-08-20T00:13:30;76540.66;;;-146.33
37414;BMP280;23279;46.472;30.760;2022-08-20T00:15:56;76530.50;;;-146.33
37414;BMP280;23279;46.472;30.760;2022-08-20T00:18:22;76524.41;;;-146.33
37414;BMP280;23279;46.472;30.760;2022-08-20T00:20:49;76542.72;;;-146.33
37414;BMP280;23279;46.472;30.760;2022-08-20T00:23:14;76520.34;;;-146.33
37414;BMP280;23279;46.472;30.760;2022-08-20T00:25:40;76502.03;;;-146.33
37414;BMP280;23279;46.472;30.760;2022-08-20T00:28:07;76497.97;;;-146.33
37414;BMP280;23279;46.472;30.760;2022-08-20T00:30:33;76493.91;;;-146.33
37414;BMP280;23279;46.472;30.760;2022-08-20T00:33:00;76449.16;;;-146.33
37414;BMP280;23279;46.472;30.760;2022-08-20T00:35:28;76436.94;;;-146.33
37414;BMP280;23279;46.472;30.760;2022-08-20T00:37:53;76414.56;;;-146.33
37414;BMP280;23279;46.472;30.760;2022-08-20T00:40:21;76367.78;;;-146.33
37414;BMP280;23279;46.472;30.760;2022-08-20T00:42:48;76375.94;;;-146.33
37414;BMP280;23279;46.472;30.760;2022-08-20T00:45:14;76335.25;;;-146.33
37414;BMP280;23279;46.472;30.760;2022-08-20T00:47:40;76351.53;;;-146.33
37414;BMP280;23279;46.472;30.760;2022-08-20T00:50:10;76294.59;;;-146.33
37414;BMP280;23279;46.472;30.760;2022-08-20T00:52:36;76257.97;;;-146.33
37414;BMP280;23279;46.472;30.760;2022-08-20T00:55:02;76284.41;;;-146.33
37414;BMP280;23279;46.472;30.760;2022-08-20T00:57:32;76268.16;;;-146.33
37414;BMP280;23279;46.472;30.760;2022-08-20T00:59:58;76249.84;;;-146.33
37414;BMP280;23279;46.472;30.760;2022-08-20T01:02:26;76233.56;;;-146.33
37414;BMP280;23279;46.472;30.760;2022-08-20T01:04:53;76241.72;;;-146.33
37414;BMP280;23279;46.472;30.760;2022-08-20T01:07:19;76245.78;;;-146.33
37414;BMP280;23279;46.472;30.760;2022-08-20T01:09:45;76243.75;;;-146.33
37414;BMP280;23279;46.472;30.760;2022-08-20T01:12:11;76264.06;;;-146.33
37414;BMP280;23279;46.472;30.760;2022-08-20T01:14:37;76325.09;;;-146.33
37414;BMP280;23279;46.472;30.760;2022-08-20T01:17:09;76373.91;;;-146.33
37414;BMP280;23279;46.472;30.760;2022-08-20T01:19:41;76390.16;;;-146.33
37414;BMP280;23279;46.472;30.760;2022-08-20T01:22:07;76367.78;;;-146.33
37414;BMP280;23279;46.472;30.760;2022-08-20T01:25:00;76323.06;;;-146.33
37414;BMP280;23279;46.472;30.760;2022-08-20T01:27:29;76294.59;;;-146.33
37414;BMP280;23279;46.472;30.760;2022-08-20T01:29:54;76323.06;;;-146.33
37414;BMP280;23279;46.472;30.760;2022-08-20T01:32:20;76343.41;;;-146.33
37414;BMP280;23279;46.472;30.760;2022-08-20T01:34:45;76363.72;;;-146.33
37414;BMP280;23279;46.472;30.760;2022-08-20T01:37:11;76388.13;;;-146.33
37414;BMP280;23279;46.472;30.760;2022-08-20T01:39:36;76369.84;;;-146.33
37414;BMP280;23279;46.472;30.760;2022-08-20T01:42:13;76333.22;;;-146.33
37414;BMP280;23279;46.472;30.760;2022-08-20T01:44:39;76347.47;;;-146.33
37414;BMP280;23279;46.472;30.760;2022-08-20T01:47:25;76335.25;;;-146.33
37414;BMP280;23279;46.472;30.760;2022-08-20T01:49:55;76276.28;;;-146.33
37414;BMP280;23279;46.472;30.760;2022-08-20T01:54:48;76312.88;;;-146.33
37414;BMP280;23279;46.472;30.760;2022-08-20T01:57:15;76290.50;;;-146.33
37414;BMP280;23279;46.472;30.760;2022-08-20T01:59:41;76325.09;;;-146.33
37414;BMP280;23279;46.472;30.760;2022-08-20T02:02:07;76345.44;;;-146.33
37414;BMP280;23279;46.472;30.760;2022-08-20T02:04:32;76321.03;;;-146.33
37414;BMP280;23279;46.472;30.760;2022-08-20T02:06:59;76306.78;;;-146.33
37414;BMP280;23279;46.472;30.760;2022-08-20T02:09:29;76290.50;;;-146.33
37414;BMP280;23279;46.472;30.760;2022-08-20T02:11:55;76268.16;;;-146.33
37414;BMP280;23279;46.472;30.760;2022-08-20T02:14:21;76233.56;;;-146.33
37414;BMP280;23279;46.472;30.760;2022-08-20T02:16:46;76213.25;;;-146.33
37414;BMP280;23279;46.472;30.760;2022-08-20T02:19:14;76190.88;;;-146.33
37414;BMP280;23279;46.472;30.760;2022-08-20T02:21:46;76164.44;;;-146.33
37414;BMP280;23279;46.472;30.760;2022-08-20T02:24:13;76156.28;;;-146.33
37414;BMP280;23279;46.472;30.760;2022-08-20T02:26:38;76144.09;;;-146.33
37414;BMP280;23279;46.472;30.760;2022-08-20T02:29:05;76164.44;;;-146.33
37414;BMP280;23279;46.472;30.760;2022-08-20T02:31:31;76142.06;;;-146.33
37414;BMP280;23279;46.472;30.760;2022-08-20T02:33:59;76111.56;;;-146.33
37414;BMP280;23279;46.472;30.760;2022-08-20T02:36:24;76103.44;;;-146.33
37414;BMP280;23279;46.472;30.760;2022-08-20T02:38:50;76119.69;;;-146.33
37414;BMP280;23279;46.472;30.760;2022-08-20T02:41:16;76107.50;;;-146.33
37414;BMP280;23279;46.472;30.760;2022-08-20T02:43:41;76091.22;;;-146.33
37414;BMP280;23279;46.472;30.760;2022-08-20T02:46:07;76068.84;;;-146.33
37414;BMP280;23279;46.472;30.760;2022-08-20T02:48:33;76050.56;;;-146.33
37414;BMP280;23279;46.472;30.760;2022-08-20T02:50:59;76034.28;;;-146.33
37414;BMP280;23279;46.472;30.760;2022-08-20T02:53:26;76036.31;;;-146.33
37414;BMP280;23279;46.472;30.760;2022-08-20T02:55:52;76009.88;;;-146.33
37414;BMP280;23279;46.472;30.760;2022-08-20T02:58:18;76026.16;;;-146.33
37414;BMP280;23279;46.472;30.760;2022-08-20T03:00:44;76020.06;;;-146.33
37414;BMP280;23279;46.472;30.760;2022-08-20T03:03:10;76018.03;;;-146.33
37414;BMP280;23279;46.472;30.760;2022-08-20T03:05:36;75995.66;;;-146.33
37414;BMP280;23279;46.472;30.760;2022-08-20T03:08:02;75979.38;;;-146.33
37414;BMP280;23279;46.472;30.760;2022-08-20T03:10:29;75989.56;;;-146.33
37414;BMP280;23279;46.472;30.760;2022-08-20T03:12:56;75993.63;;;-146.33
37414;BMP280;23279;46.472;30.760;2022-08-20T03:15:22;75969.22;;;-146.33
37414;BMP280;23279;46.472;30.760;2022-08-20T03:17:47;75973.28;;;-146.33
37414;BMP280;23279;46.472;30.760;2022-08-20T03:20:13;75973.28;;;-146.33
37414;BMP280;23279;46.472;30.760;2022-08-20T03:22:38;75985.47;;;-146.33
37414;BMP280;23279;46.472;30.760;2022-08-20T03:25:05;75983.44;;;-146.33
37414;BMP280;23279;46.472;30.760;2022-08-20T03:27:30;75979.38;;;-146.33
37414;BMP280;23279;46.472;30.760;2022-08-20T03:29:55;75999.72;;;-146.33
37414;BMP280;23279;46.472;30.760;2022-08-20T03:32:21;76064.78;;;-146.33
37414;BMP280;23279;46.472;30.760;2022-08-20T03:34:46;76054.63;;;-146.33
37414;BMP280;23279;46.472;30.760;2022-08-20T03:37:12;76062.75;;;-146.33
37414;BMP280;23279;46.472;30.760;2022-08-20T03:39:37;76052.59;;;-146.33
37414;BMP280;23279;46.472;30.760;2022-08-20T03:42:03;76056.66;;;-146.33
37414;BMP280;23279;46.472;30.760;2022-08-20T03:44:28;76058.69;;;-146.33
37414;BMP280;23279;46.472;30.760;2022-08-20T03:46:53;76018.03;;;-146.33
37414;BMP280;23279;46.472;30.760;2022-08-20T03:49:19;76005.81;;;-146.33
37414;BMP280;23279;46.472;30.760;2022-08-20T03:51:44;76042.41;;;-146.33
37414;BMP280;23279;46.472;30.760;2022-08-20T03:54:09;76046.50;;;-146.33
37414;BMP280;23279;46.472;30.760;2022-08-20T03:56:34;76050.56;;;-146.33
37414;BMP280;23279;46.472;30.760;2022-08-20T03:59:00;76046.50;;;-146.33
37414;BMP280;23279;46.472;30.760;2022-08-20T04:01:25;76087.16;;;-146.33
37414;BMP280;23279;46.472;30.760;2022-08-20T04:03:50;76119.69;;;-146.33
37414;BMP280;23279;46.472;30.760;2022-08-20T04:06:16;76133.94;;;-146.33
37414;BMP280;23279;46.472;30.760;2022-08-20T04:08:42;76144.09;;;-146.33
37414;BMP280;23279;46.472;30.760;2022-08-20T04:11:07;76140.03;;;-146.33
37414;BMP280;23279;46.472;30.760;2022-08-20T04:13:33;76194.94;;;-146.33
37414;BMP280;23279;46.472;30.760;2022-08-20T04:16:01;76192.91;;;-146.33
37414;BMP280;23279;46.472;30.760;2022-08-20T04:18:28;76219.34;;;-146.33
37414;BMP280;23279;46.472;30.760;2022-08-20T04:20:53;76249.84;;;-146.33
37414;BMP280;23279;46.472;30.760;2022-08-20T04:23:19;76235.59;;;-146.33
37414;BMP280;23279;46.472;30.760;2022-08-20T04:25:45;76215.28;;;-146.33
37414;BMP280;23279;46.472;30.760;2022-08-20T04:28:14;76225.44;;;-146.33
37414;BMP280;23279;46.472;30.760;2022-08-20T04:30:40;76241.72;;;-146.33
37414;BMP280;23279;46.472;30.760;2022-08-20T04:33:06;76290.50;;;-146.33
37414;BMP280;23279;46.472;30.760;2022-08-20T04:35:32;76292.56;;;-146.33
37414;BMP280;23279;46.472;30.760;2022-08-20T04:37:58;76286.44;;;-146.33
37414;BMP280;23279;46.472;30.760;2022-08-20T04:40:24;76308.81;;;-146.33
37414;BMP280;23279;46.472;30.760;2022-08-20T04:43:07;76290.50;;;-146.33
37414;BMP280;23279;46.472;30.760;2022-08-20T04:45:33;76319.00;;;-146.33
37414;BMP280;23279;46.472;30.760;2022-08-20T04:48:01;76331.19;;;-146.33
37414;BMP280;23279;46.472;30.760;2022-08-20T04:50:31;76359.66;;;-146.33
37414;BMP280;23279;46.472;30.760;2022-08-20T04:53:04;76329.16;;;-146.33
37414;BMP280;23279;46.472;30.760;2022-08-20T04:55:30;76351.53;;;-146.33
37414;BMP280;23279;46.472;30.760;2022-08-20T04:57:59;76371.88;;;-146.33
37414;BMP280;23279;46.472;30.760;2022-08-20T05:00:26;76355.59;;;-146.33
37414;BMP280;23279;46.472;30.760;2022-08-20T05:02:51;76343.41;;;-146.33
37414;BMP280;23279;46.472;30.760;2022-08-20T05:05:16;76343.41;;;-146.33
37414;BMP280;23279;46.472;30.760;2022-08-20T05:07:43;76449.16;;;-146.33
37414;BMP280;23279;46.472;30.760;2022-08-20T05:10:10;76508.13;;;-146.33
37414;BMP280;23279;46.472;30.760;2022-08-20T05:12:36;76530.50;;;-146.33
37414;BMP280;23279;46.472;30.760;2022-08-20T05:15:02;76595.59;;;-146.33
37414;BMP280;23279;46.472;30.760;2022-08-20T05:17:28;76624.06;;;-146.33
37414;BMP280;23279;46.472;30.760;2022-08-20T05:19:53;76658.63;;;-146.33
37414;BMP280;23279;46.472;30.760;2022-08-20T05:22:19;76644.41;;;-146.33
37414;BMP280;23279;46.472;30.760;2022-08-20T05:24:44;76636.25;;;-146.33
37414;BMP280;23279;46.472;30.760;2022-08-20T05:27:09;76624.06;;;-146.33
37414;BMP280;23279;46.472;30.760;2022-08-20T05:29:34;76628.13;;;-146.33
37414;BMP280;23279;46.472;30.760;2022-08-20T05:32:00;76609.81;;;-146.33
37414;BMP280;23279;46.472;30.760;2022-08-20T05:34:26;76615.94;;;-146.33
37414;BMP280;23279;46.472;30.760;2022-08-20T05:36:51;76668.81;;;-146.33
37414;BMP280;23279;46.472;30.760;2022-08-20T05:39:20;76676.94;;;-146.33
37414;BMP280;23279;46.472;30.760;2022-08-20T05:41:46;76705.41;;;-146.33
37414;BMP280;23279;46.472;30.760;2022-08-20T05:44:13;76713.56;;;-146.33
37414;BMP280;23279;46.472;30.760;2022-08-20T05:46:40;76717.63;;;-146.33
37414;BMP280;23279;46.472;30.760;2022-08-20T05:49:06;76707.44;;;-146.33
37414;BMP280;23279;46.472;30.760;2022-08-20T05:51:32;76717.63;;;-146.33
37414;BMP280;23279;46.472;30.760;2022-08-20T05:53:57;76697.28;;;-146.33
37414;BMP280;23279;46.472;30.760;2022-08-20T05:56:23;76709.50;;;-146.33
37414;BMP280;23279;46.472;30.760;2022-08-20T05:58:48;76721.69;;;-146.33
37414;BMP280;23279;46.472;30.760;2022-08-20T06:01:13;76711.53;;;-146.33
37414;BMP280;23279;46.472;30.760;2022-08-20T06:03:38;76709.50;;;-146.33
37414;BMP280;23279;46.472;30.760;2022-08-20T06:06:22;76697.28;;;-146.33
37414;BMP280;23279;46.472;30.760;2022-08-20T06:08:47;76725.75;;;-146.33
37414;BMP280;23279;46.472;30.760;2022-08-20T06:11:12;76729.81;;;-146.33
37414;BMP280;23279;46.472;30.760;2022-08-20T06:13:38;76703.38;;;-146.33
37414;BMP280;23279;46.472;30.760;2022-08-20T06:16:03;76697.28;;;-146.33
37414;BMP280;23279;46.472;30.760;2022-08-20T06:18:28;76683.03;;;-146.33
37414;BMP280;23279;46.472;30.760;2022-08-20T06:20:54;76695.25;;;-146.33
37414;BMP280;23279;46.472;30.760;2022-08-20T06:23:19;76689.16;;;-146.33
37414;BMP280;23279;46.472;30.760;2022-08-20T06:25:45;76689.16;;;-146.33
37414;BMP280;23279;46.472;30.760;2022-08-20T06:28:12;76707.44;;;-146.33
37414;BMP280;23279;46.472;30.760;2022-08-20T06:30:37;76721.69;;;-146.33
37414;BMP280;23279;46.472;30.760;2022-08-20T06:33:03;76713.56;;;-146.33
37414;BMP280;23279;46.472;30.760;2022-08-20T06:35:28;76695.25;;;-146.33
37414;BMP280;23279;46.472;30.760;2022-08-20T06:37:53;76693.22;;;-146.33
37414;BMP280;23279;46.472;30.760;2022-08-20T06:40:22;76678.97;;;-146.33
37414;BMP280;23279;46.472;30.760;2022-08-20T06:42:48;76674.91;;;-146.33
37414;BMP280;23279;46.472;30.760;2022-08-20T06:45:16;76685.06;;;-146.33
37414;BMP280;23279;46.472;30.760;2022-08-20T06:47:42;76672.88;;;-146.33
37414;BMP280;23279;46.472;30.760;2022-08-20T06:50:13;76652.53;;;-146.33
37414;BMP280;23279;46.472;30.760;2022-08-20T06:52:39;76624.06;;;-146.33
37414;BMP280;23279;46.472;30.760;2022-08-20T06:55:06;76632.19;;;-146.33
37414;BMP280;23279;46.472;30.760;2022-08-20T06:57:32;76670.84;;;-146.33
37414;BMP280;23279;46.472;30.760;2022-08-20T06:59:57;76674.91;;;-146.33
37414;BMP280;23279;46.472;30.760;2022-08-20T07:02:23;76668.81;;;-146.33
37414;BMP280;23279;46.472;30.760;2022-08-20T07:04:49;76632.19;;;-146.33
37414;BMP280;23279;46.472;30.760;2022-08-20T07:07:15;76634.22;;;-146.33
37414;BMP280;23279;46.472;30.760;2022-08-20T07:09:40;76644.41;;;-146.33
37414;BMP280;23279;46.472;30.760;2022-08-20T07:12:05;76668.81;;;-146.33
37414;BMP280;23279;46.472;30.760;2022-08-20T07:14:31;76683.03;;;-146.33
37414;BMP280;23279;46.472;30.760;2022-08-20T07:16:56;76691.19;;;-146.33
37414;BMP280;23279;46.472;30.760;2022-08-20T07:19:22;76693.22;;;-146.33
37414;BMP280;23279;46.472;30.760;2022-08-20T07:21:47;76697.28;;;-146.33
37414;BMP280;23279;46.472;30.760;2022-08-20T07:24:13;76660.66;;;-146.33
37414;BMP280;23279;46.472;30.760;2022-08-20T07:26:38;76652.53;;;-146.33
37414;BMP280;23279;46.472;30.760;2022-08-20T07:29:04;76636.25;;;-146.33
37414;BMP280;23279;46.472;30.760;2022-08-20T07:31:29;76650.50;;;-146.33
37414;BMP280;23279;46.472;30.760;2022-08-20T07:34:14;76660.66;;;-146.33
37414;BMP280;23279;46.472;30.760;2022-08-20T07:36:39;76650.50;;;-146.33
37414;BMP280;23279;46.472;30.760;2022-08-20T07:39:05;76658.63;;;-146.33
37414;BMP280;23279;46.472;30.760;2022-08-20T07:41:30;76617.97;;;-146.33
37414;BMP280;23279;46.472;30.760;2022-08-20T07:43:55;76628.13;;;-146.33
37414;BMP280;23279;46.472;30.760;2022-08-20T07:46:22;76605.75;;;-146.33
37414;BMP280;23279;46.472;30.760;2022-08-20T07:48:48;76624.06;;;-146.33
37414;BMP280;23279;46.472;30.760;2022-08-20T07:51:15;76628.13;;;-146.33
37414;BMP280;23279;46.472;30.760;2022-08-20T07:53:42;76626.09;;;-146.33
37414;BMP280;23279;46.472;30.760;2022-08-20T07:56:09;76603.72;;;-146.33
37414;BMP280;23279;46.472;30.760;2022-08-20T07:58:35;76589.47;;;-146.33
37414;BMP280;23279;46.472;30.760;2022-08-20T08:01:03;76607.78;;;-146.33
37414;BMP280;23279;46.472;30.760;2022-08-20T08:03:29;76597.63;;;-146.33
37414;BMP280;23279;46.472;30.760;2022-08-20T08:05:55;76567.09;;;-146.33
37414;BMP280;23279;46.472;30.760;2022-08-20T08:08:22;76563.03;;;-146.33
37414;BMP280;23279;46.472;30.760;2022-08-20T08:10:48;76536.59;;;-146.33
37414;BMP280;23279;46.472;30.760;2022-08-20T08:13:14;76534.56;;;-146.33
37414;BMP280;23279;46.472;30.760;2022-08-20T08:15:40;76542.72;;;-146.33
37414;BMP280;23279;46.472;30.760;2022-08-20T08:18:11;76542.72;;;-146.33
37414;BMP280;23279;46.472;30.760;2022-08-20T08:20:38;76565.06;;;-146.33
37414;BMP280;23279;46.472;30.760;2022-08-20T08:23:06;76581.34;;;-146.33
37414;BMP280;23279;46.472;30.760;2022-08-20T08:25:32;76571.19;;;-146.33
37414;BMP280;23279;46.472;30.760;2022-08-20T08:27:58;76577.28;;;-146.33
37414;BMP280;23279;46.472;30.760;2022-08-20T08:30:24;76575.25;;;-146.33
37414;BMP280;23279;46.472;30.760;2022-08-20T08:32:50;76575.25;;;-146.33
37414;BMP280;23279;46.472;30.760;2022-08-20T08:35:36;76544.75;;;-146.33
37414;BMP280;23279;46.472;30.760;2022-08-20T08:38:01;76554.91;;;-146.33
37414;BMP280;23279;46.472;30.760;2022-08-20T08:40:27;76530.50;;;-146.33
37414;BMP280;23279;46.472;30.760;2022-08-20T08:42:53;76530.50;;;-146.33
37414;BMP280;23279;46.472;30.760;2022-08-20T08:45:22;76561.00;;;-146.33
37414;BMP280;23279;46.472;30.760;2022-08-20T08:47:48;76526.44;;;-146.33
37414;BMP280;23279;46.472;30.760;2022-08-20T08:50:18;76571.19;;;-146.33
37414;BMP280;23279;46.472;30.760;2022-08-20T08:52:46;76538.63;;;-146.33
37414;BMP280;23279;46.472;30.760;2022-08-20T08:55:15;76493.91;;;-146.33
37414;BMP280;23279;46.472;30.760;2022-08-20T08:57:42;76469.50;;;-146.33
37414;BMP280;23279;46.472;30.760;2022-08-20T09:00:09;76477.63;;;-146.33
37414;BMP280;23279;46.472;30.760;2022-08-20T09:02:37;76471.53;;;-146.33
37414;BMP280;23279;46.472;30.760;2022-08-20T09:05:04;76487.78;;;-146.33
37414;BMP280;23279;46.472;30.760;2022-08-20T09:07:37;76481.69;;;-146.33
37414;BMP280;23279;46.472;30.760;2022-08-20T09:10:02;76479.66;;;-146.33
37414;BMP280;23279;46.472;30.760;2022-08-20T09:12:28;76475.59;;;-146.33
37414;BMP280;23279;46.472;30.760;2022-08-20T09:14:53;76477.63;;;-146.33
37414;BMP280;23279;46.472;30.760;2022-08-20T09:17:20;76485.75;;;-146.33
37414;BMP280;23279;46.472;30.760;2022-08-20T09:19:45;76465.41;;;-146.33
37414;BMP280;23279;46.472;30.760;2022-08-20T09:22:15;76500.00;;;-146.33
37414;BMP280;23279;46.472;30.760;2022-08-20T09:24:41;76489.81;;;-146.33
37414;BMP280;23279;46.472;30.760;2022-08-20T09:27:07;76485.75;;;-146.33
37414;BMP280;23279;46.472;30.760;2022-08-20T09:29:33;76487.78;;;-146.33
37414;BMP280;23279;46.472;30.760;2022-08-20T09:32:08;76500.00;;;-146.33
37414;BMP280;23279;46.472;30.760;2022-08-20T09:34:35;76475.59;;;-146.33
37414;BMP280;23279;46.472;30.760;2022-08-20T09:37:00;76473.56;;;-146.33
37414;BMP280;23279;46.472;30.760;2022-08-20T09:39:25;76432.88;;;-146.33
37414;BMP280;23279;46.472;30.760;2022-08-20T09:41:51;76410.50;;;-146.33
37414;BMP280;23279;46.472;30.760;2022-08-20T09:44:16;76420.69;;;-146.33
37414;BMP280;23279;46.472;30.760;2022-08-20T09:46:41;76438.97;;;-146.33
37414;BMP280;23279;46.472;30.760;2022-08-20T09:49:07;76406.44;;;-146.33
37414;BMP280;23279;46.472;30.760;2022-08-20T09:51:32;76384.06;;;-146.33
37414;BMP280;23279;46.472;30.760;2022-08-20T09:53:57;76367.78;;;-146.33
37414;BMP280;23279;46.472;30.760;2022-08-20T09:56:23;76351.53;;;-146.33
37414;BMP280;23279;46.472;30.760;2022-08-20T09:58:50;76343.41;;;-146.33
37414;BMP280;23279;46.472;30.760;2022-08-20T10:01:17;76384.06;;;-146.33
37414;BMP280;23279;46.472;30.760;2022-08-20T10:03:45;76384.06;;;-146.33
37414;BMP280;23279;46.472;30.760;2022-08-20T10:06:12;76380.00;;;-146.33
37414;BMP280;23279;46.472;30.760;2022-08-20T10:08:39;76388.13;;;-146.33
37414;BMP280;23279;46.472;30.760;2022-08-20T10:11:04;76380.00;;;-146.33
37414;BMP280;23279;46.472;30.760;2022-08-20T10:13:29;76380.00;;;-146.33
37414;BMP280;23279;46.472;30.760;2022-08-20T10:15:55;76371.88;;;-146.33
37414;BMP280;23279;46.472;30.760;2022-08-20T10:18:20;76349.50;;;-146.33
37414;BMP280;23279;46.472;30.760;2022-08-20T10:20:46;76337.28;;;-146.33
37414;BMP280;23279;46.472;30.760;2022-08-20T10:23:11;76319.00;;;-146.33
37414;BMP280;23279;46.472;30.760;2022-08-20T10:25:36;76306.78;;;-146.33
37414;BMP280;23279;46.472;30.760;2022-08-20T10:28:02;76302.72;;;-146.33
37414;BMP280;23279;46.472;30.760;2022-08-20T10:30:27;76260.00;;;-146.33
37414;BMP280;23279;46.472;30.760;2022-08-20T10:32:53;76241.72;;;-146.33
37414;BMP280;23279;46.472;30.760;2022-08-20T10:35:18;76245.78;;;-146.33
37414;BMP280;23279;46.472;30.760;2022-08-20T10:37:43;76227.47;;;-146.33
37414;BMP280;23279;46.472;30.760;2022-08-20T10:40:09;76205.09;;;-146.33
37414;BMP280;23279;46.472;30.760;2022-08-20T10:42:35;76184.75;;;-146.33
37414;BMP280;23279;46.472;30.760;2022-08-20T10:45:00;76182.72;;;-146.33
37414;BMP280;23279;46.472;30.760;2022-08-20T10:47:27;76192.91;;;-146.33
37414;BMP280;23279;46.472;30.760;2022-08-20T10:49:53;76182.72;;;-146.33
37414;BMP280;23279;46.472;30.760;2022-08-20T10:52:18;76229.50;;;-146.33
37414;BMP280;23279;46.472;30.760;2022-08-20T10:54:44;76227.47;;;-146.33
37414;BMP280;23279;46.472;30.760;2022-08-20T10:57:17;76229.50;;;-146.33
37414;BMP280;23279;46.472;30.760;2022-08-20T10:59:44;76188.84;;;-146.33
37414;BMP280;23279;46.472;30.760;2022-08-20T11:02:09;76146.13;;;-146.33
37414;BMP280;23279;46.472;30.760;2022-08-20T11:04:35;76135.97;;;-146.33
37414;BMP280;23279;46.472;30.760;2022-08-20T11:07:15;76103.44;;;-146.33
37414;BMP280;23279;46.472;30.760;2022-08-20T11:09:41;76115.63;;;-146.33
37414;BMP280;23279;46.472;30.760;2022-08-20T11:12:06;76133.94;;;-146.33
37414;BMP280;23279;46.472;30.760;2022-08-20T11:14:32;76119.69;;;-146.33
37414;BMP280;23279;46.472;30.760;2022-08-20T11:16:58;76123.75;;;-146.33
37414;BMP280;23279;46.472;30.760;2022-08-20T11:19:23;76160.38;;;-146.33
37414;BMP280;23279;46.472;30.760;2022-08-20T11:21:48;76160.38;;;-146.33
37414;BMP280;23279;46.472;30.760;2022-08-20T11:24:14;76152.22;;;-146.33
37414;BMP280;23279;46.472;30.760;2022-08-20T11:26:39;76172.56;;;-146.33
37414;BMP280;23279;46.472;30.760;2022-08-20T11:29:04;76127.81;;;-146.33
37414;BMP280;23279;46.472;30.760;2022-08-20T11:31:29;76115.63;;;-146.33
37414;BMP280;23279;46.472;30.760;2022-08-20T11:33:55;76091.22;;;-146.33
37414;BMP280;23279;46.472;30.760;2022-08-20T11:36:20;76107.50;;;-146.33
37414;BMP280;23279;46.472;30.760;2022-08-20T11:38:50;76119.69;;;-146.33
37414;BMP280;23279;46.472;30.760;2022-08-20T11:41:15;76158.31;;;-146.33
37414;BMP280;23279;46.472;30.760;2022-08-20T11:43:40;76150.19;;;-146.33
37414;BMP280;23279;46.472;30.760;2022-08-20T11:46:06;76119.69;;;-146.33
37414;BMP280;23279;46.472;30.760;2022-08-20T11:48:31;76087.16;;;-146.33
37414;BMP280;23279;46.472;30.760;2022-08-20T11:50:56;76101.38;;;-146.33
37414;BMP280;23279;46.472;30.760;2022-08-20T11:53:21;76081.06;;;-146.33
37414;BMP280;23279;46.472;30.760;2022-08-20T11:55:47;76058.69;;;-146.33
37414;BMP280;23279;46.472;30.760;2022-08-20T11:58:12;76042.41;;;-146.33
37414;BMP280;23279;46.472;30.760;2022-08-20T12:00:37;76058.69;;;-146.33
37414;BMP280;23279;46.472;30.760;2022-08-20T12:03:04;76066.81;;;-146.33
37414;BMP280;23279;46.472;30.760;2022-08-20T12:05:29;76062.75;;;-146.33
37414;BMP280;23279;46.472;30.760;2022-08-20T12:07:55;76066.81;;;-146.33
37414;BMP280;23279;46.472;30.760;2022-08-20T12:10:22;76052.59;;;-146.33
37414;BMP280;23279;46.472;30.760;2022-08-20T12:12:50;76026.16;;;-146.33
37414;BMP280;23279;46.472;30.760;2022-08-20T12:15:15;76018.03;;;-146.33
37414;BMP280;23279;46.472;30.760;2022-08-20T12:17:41;76001.75;;;-146.33
37414;BMP280;23279;46.472;30.760;2022-08-20T12:20:07;76015.97;;;-146.33
37414;BMP280;23279;46.472;30.760;2022-08-20T12:22:33;76022.09;;;-146.33
37414;BMP280;23279;46.472;30.760;2022-08-20T12:24:58;76013.94;;;-146.33
37414;BMP280;23279;46.472;30.760;2022-08-20T12:27:27;76032.25;;;-146.33
37414;BMP280;23279;46.472;30.760;2022-08-20T12:29:54;76026.16;;;-146.33
37414;BMP280;23279;46.472;30.760;2022-08-20T12:32:20;76030.22;;;-146.33
37414;BMP280;23279;46.472;30.760;2022-08-20T12:34:45;76009.88;;;-146.33
37414;BMP280;23279;46.472;30.760;2022-08-20T12:37:12;76026.16;;;-146.33
37414;BMP280;23279;46.472;30.760;2022-08-20T12:39:38;76022.09;;;-146.33
37414;BMP280;23279;46.472;30.760;2022-08-20T12:42:04;75993.63;;;-146.33
37414;BMP280;23279;46.472;30.760;2022-08-20T12:44:29;75997.69;;;-146.33
37414;BMP280;23279;46.472;30.760;2022-08-20T12:49:32;76026.16;;;-146.33
37414;BMP280;23279;46.472;30.760;2022-08-20T12:51:57;76050.56;;;-146.33
37414;BMP280;23279;46.472;30.760;2022-08-20T12:54:23;76079.03;;;-146.33
37414;BMP280;23279;46.472;30.760;2022-08-20T12:56:48;76091.22;;;-146.33
37414;BMP280;23279;46.472;30.760;2022-08-20T12:59:15;76123.75;;;-146.33
37414;BMP280;23279;46.472;30.760;2022-08-20T13:01:41;76146.13;;;-146.33
37414;BMP280;23279;46.472;30.760;2022-08-20T13:04:06;76107.50;;;-146.33
37414;BMP280;23279;46.472;30.760;2022-08-20T13:06:31;76107.50;;;-146.33
37414;BMP280;23279;46.472;30.760;2022-08-20T13:08:57;76083.09;;;-146.33
37414;BMP280;23279;46.472;30.760;2022-08-20T13:11:22;76103.44;;;-146.33
37414;BMP280;23279;46.472;30.760;2022-08-20T13:13:47;76085.13;;;-146.33
37414;BMP280;23279;46.472;30.760;2022-08-20T13:16:12;76077.00;;;-146.33
37414;BMP280;23279;46.472;30.760;2022-08-20T13:18:38;76111.56;;;-146.33
37414;BMP280;23279;46.472;30.760;2022-08-20T13:21:03;76117.66;;;-146.33
37414;BMP280;23279;46.472;30.760;2022-08-20T13:23:29;76107.50;;;-146.33
37414;BMP280;23279;46.472;30.760;2022-08-20T13:25:54;76103.44;;;-146.33
37414;BMP280;23279;46.472;30.760;2022-08-20T13:28:19;76074.97;;;-146.33
37414;BMP280;23279;46.472;30.760;2022-08-20T13:30:45;76087.16;;;-146.33
37414;BMP280;23279;46.472;30.760;2022-08-20T13:33:10;76097.31;;;-146.33